Time;durP1;ratioP1;P1;durP2;ratioP2;P2;SDS_P1;SDS_P2;PMS_P1;PMS_P2;Temp;Humidity;BMP_temperature;BMP_pressure;BME280_temperature;BME280_humidity;BME280_pressure;Samples;Min_cycle;Max_cycle;Signal;HPM_P1;HPM_P2
2021/06/18 00:01:47;;;;;;;28.35;16.15;;;;;;;22.86;64.41;101215.22;5065313;28;20027;-67
2021/06/18 00:04:12;;;;;;;27.20;17.30;;;;;;;22.86;64.57;101215.22;5063622;28;20106;-66
2021/06/18 00:06:38;;;;;;;27.15;15.93;;;;;;;22.89;64.54;101211.53;5066490;28;20116;-66
2021/06/18 00:09:04;;;;;;;26.85;15.70;;;;;;;22.93;64.33;101207.75;5062934;28;20510;-66
2021/06/18 00:11:29;;;;;;;27.88;16.02;;;;;;;22.84;64.78;101206.34;5065716;28;20033;-65
2021/06/18 00:13:54;;;;;;;27.13;16.02;;;;;;;22.84;64.65;101209.03;5064226;28;20017;-66
2021/06/18 00:16:20;;;;;;;26.83;15.23;;;;;;;22.84;64.61;101203.63;5064437;28;20410;-66
2021/06/18 00:18:45;;;;;;;25.95;15.18;;;;;;;22.87;64.69;101206.19;5065650;28;20063;-66
2021/06/18 00:21:10;;;;;;;24.63;14.32;;;;;;;22.81;65.45;101203.75;5062831;28;20028;-66
2021/06/18 00:23:36;;;;;;;25.38;15.40;;;;;;;22.80;65.18;101208.28;5064908;28;20039;-66
2021/06/18 00:26:01;;;;;;;24.45;14.48;;;;;;;22.90;64.67;101197.97;5063622;28;20033;-66
2021/06/18 00:28:27;;;;;;;26.90;15.50;;;;;;;22.97;64.26;101193.22;5064682;28;20468;-66
2021/06/18 00:30:53;;;;;;;27.02;15.85;;;;;;;23.01;63.93;101189.47;5064260;28;20028;-65
2021/06/18 00:33:18;;;;;;;26.75;16.63;;;;;;;23.09;64.01;101192.69;5063802;28;20032;-66
2021/06/18 00:35:43;;;;;;;26.95;16.08;;;;;;;23.10;63.91;101186.41;5065459;28;20456;-67
2021/06/18 00:38:09;;;;;;;28.08;16.85;;;;;;;23.14;63.74;101185.34;5062956;28;20525;-68
2021/06/18 00:40:34;;;;;;;26.90;17.10;;;;;;;23.07;64.07;101188.34;5065707;28;20028;-65
2021/06/18 00:43:00;;;;;;;26.83;16.70;;;;;;;23.07;64.28;101182.94;5063140;28;20078;-66
2021/06/18 00:45:25;;;;;;;28.30;16.80;;;;;;;23.05;64.34;101172.22;5064627;28;20025;-66
2021/06/18 00:47:56;;;;;;;26.05;15.73;;;;;;;23.08;64.29;101181.97;5064165;28;20066;-66
2021/06/18 00:50:22;;;;;;;27.17;16.05;;;;;;;22.98;64.61;101173.44;5063863;28;20033;-67
2021/06/18 00:52:48;;;;;;;27.17;16.13;;;;;;;23.00;64.48;101166.13;5064972;28;20115;-67
2021/06/18 00:55:14;;;;;;;26.90;16.73;;;;;;;22.91;65.24;101155.75;5062858;28;20112;-68
2021/06/18 00:57:39;;;;;;;27.55;16.13;;;;;;;22.84;65.36;101155.13;5065408;28;20031;-66
2021/06/18 01:00:07;;;;;;;26.58;15.90;;;;;;;22.78;65.36;101158.97;5062443;28;20021;-66
2021/06/18 01:02:33;;;;;;;25.88;16.40;;;;;;;22.81;65.54;101157.97;5064856;28;20036;-66
2021/06/18 01:04:58;;;;;;;28.02;16.13;;;;;;;22.89;65.41;101158.53;5062682;28;20074;-66
2021/06/18 01:07:33;;;;;;;26.63;16.92;;;;;;;22.81;65.08;101160.66;5063891;28;20075;-66
2021/06/18 01:10:22;;;;;;;25.77;15.95;;;;;;;22.78;65.32;101171.56;5062671;28;20059;-66
2021/06/18 01:13:05;;;;;;;27.30;16.60;;;;;;;22.82;65.44;101183.97;5060708;28;20029;-66
2021/06/18 01:15:39;;;;;;;25.77;16.30;;;;;;;22.87;65.66;101173.00;5061875;28;20029;-66
2021/06/18 01:18:12;;;;;;;27.27;16.70;;;;;;;22.87;65.51;101176.56;5065215;28;20025;-66
2021/06/18 01:20:50;;;;;;;28.98;16.98;;;;;;;22.88;65.32;101178.31;5058034;28;20029;-66
2021/06/18 01:23:28;;;;;;;27.55;16.88;;;;;;;22.86;65.17;101185.56;5059614;28;20044;-66
2021/06/18 01:26:22;;;;;;;28.63;17.80;;;;;;;22.88;64.86;101182.84;5063062;28;20383;-66
2021/06/18 01:28:51;;;;;;;27.70;17.70;;;;;;;22.81;66.45;101193.84;5057600;28;20047;-66
2021/06/18 01:31:22;;;;;;;28.52;17.83;;;;;;;22.89;65.84;101195.34;5061868;28;20047;-66
2021/06/18 01:33:55;;;;;;;29.80;18.52;;;;;;;22.86;65.82;101190.09;5060101;28;20500;-66
2021/06/18 01:36:22;;;;;;;27.48;17.88;;;;;;;22.84;66.29;101190.16;5061214;28;20403;-66
2021/06/18 01:38:50;;;;;;;29.23;18.77;;;;;;;22.81;66.93;101193.00;5060123;28;20035;-66
2021/06/18 01:41:20;;;;;;;28.40;18.15;;;;;;;22.82;66.72;101183.97;5062050;28;20439;-66
2021/06/18 01:43:46;;;;;;;27.98;18.55;;;;;;;22.84;66.98;101192.00;5059605;28;20035;-66
2021/06/18 01:46:18;;;;;;;27.33;17.98;;;;;;;22.84;66.33;101182.06;5062142;28;20033;-66
2021/06/18 01:48:54;;;;;;;28.65;18.80;;;;;;;22.92;66.36;101187.13;5059487;28;20032;-66
2021/06/18 01:51:20;;;;;;;27.85;18.38;;;;;;;22.84;67.09;101189.28;5061346;28;20033;-66
2021/06/18 01:53:48;;;;;;;28.35;18.90;;;;;;;22.75;67.17;101194.13;5059542;28;20037;-66
2021/06/18 01:56:16;;;;;;;29.90;18.73;;;;;;;22.69;67.77;101186.28;5061847;28;20035;-66
2021/06/18 01:58:46;;;;;;;31.20;19.30;;;;;;;22.58;67.67;101170.53;5058847;28;20075;-66
2021/06/18 02:01:14;;;;;;;29.15;18.60;;;;;;;22.55;67.42;101153.66;5045393;28;20463;-66
2021/06/18 02:03:41;;;;;;;29.35;19.15;;;;;;;22.50;67.73;101153.84;5058729;28;20175;-66
2021/06/18 02:06:08;;;;;;;31.02;19.90;;;;;;;22.41;67.97;101157.78;5056306;28;20072;-66
2021/06/18 02:08:33;;;;;;;29.23;19.52;;;;;;;22.36;68.14;101158.91;5063794;28;20093;-66
2021/06/18 02:11:01;;;;;;;29.40;18.92;;;;;;;22.32;68.52;101150.06;5061824;28;20483;-66
2021/06/18 02:13:31;;;;;;;29.33;18.92;;;;;;;22.30;68.47;101151.91;5062910;28;20089;-66
2021/06/18 02:15:58;;;;;;;31.00;19.67;;;;;;;22.22;69.05;101157.63;5062321;28;20372;-66
2021/06/18 02:18:25;;;;;;;27.63;18.90;;;;;;;22.19;69.17;101152.34;5062542;28;20036;-65
2021/06/18 02:20:54;;;;;;;28.67;19.92;;;;;;;22.18;69.30;101166.75;5062812;28;20608;-66
2021/06/18 02:23:22;;;;;;;29.00;20.58;;;;;;;22.13;69.97;101186.69;5061966;28;20029;-66
2021/06/18 02:25:49;;;;;;;32.78;21.38;;;;;;;21.79;72.17;101218.44;5062167;28;20033;-66
2021/06/18 02:28:15;;;;;;;32.38;21.88;;;;;;;21.48;73.62;101246.41;5061064;28;20476;-66
2021/06/18 02:30:41;;;;;;;30.90;22.05;;;;;;;21.20;75.64;101243.78;5064579;28;20056;-66
2021/06/18 02:33:13;;;;;;;32.85;22.35;;;;;;;21.17;75.99;101233.13;5056590;28;20104;-65
2021/06/18 02:35:40;;;;;;;32.88;23.38;;;;;;;21.22;75.55;101226.69;5056859;28;20028;-66
2021/06/18 02:38:07;;;;;;;32.67;22.45;;;;;;;21.26;75.13;101168.31;5063994;28;20383;-66
2021/06/18 02:40:33;;;;;;;31.10;21.38;;;;;;;21.35;75.09;101145.63;5060967;28;20025;-66
2021/06/18 02:42:58;;;;;;;30.00;21.45;;;;;;;21.46;73.89;101155.97;5062684;28;20115;-65
2021/06/18 02:45:24;;;;;;;31.48;22.40;;;;;;;21.56;73.38;101165.47;5062516;28;20025;-66
2021/06/18 02:48:05;;;;;;;30.08;21.85;;;;;;;21.61;72.48;101181.44;5061528;28;20075;-65
2021/06/18 02:50:38;;;;;;;31.33;21.67;;;;;;;21.67;72.58;101178.53;5061271;28;20028;-66
2021/06/18 02:53:07;;;;;;;29.77;21.67;;;;;;;21.61;72.95;101168.00;5063455;28;20021;-66
2021/06/18 02:55:44;;;;;;;31.40;21.80;;;;;;;21.65;72.18;101153.50;5061307;28;20036;-66
2021/06/18 02:58:30;;;;;;;30.65;22.23;;;;;;;21.59;72.57;101120.50;5057018;28;20017;-66
2021/06/18 03:00:56;;;;;;;31.58;22.80;;;;;;;21.58;73.25;101108.03;5060951;28;20029;-65
2021/06/18 03:03:40;;;;;;;32.35;22.60;;;;;;;21.68;71.95;101110.34;5062370;28;20025;-66
2021/06/18 03:06:07;;;;;;;33.78;23.23;;;;;;;21.64;72.88;101117.69;5063657;28;20020;-66
2021/06/18 03:08:42;;;;;;;34.38;24.85;;;;;;;21.50;73.98;101190.75;5061216;28;20025;-66
2021/06/18 03:11:10;;;;;;;35.97;23.48;;;;;;;21.45;74.18;101337.06;5056622;28;20388;-64
2021/06/18 03:13:41;;;;;;;33.60;24.80;;;;;;;21.19;76.40;101345.06;5063599;28;20416;-64
2021/06/18 03:16:12;;;;;;;49.95;29.63;;;;;;;20.29;100.00;101301.19;5056378;28;20055;-64
2021/06/18 03:18:41;;;;;;;53.08;29.80;;;;;;;19.13;100.00;101247.97;5056530;28;20044;-63
2021/06/18 03:21:08;;;;;;;41.88;22.80;;;;;;;18.85;100.00;101234.31;5063988;28;20048;-61
2021/06/18 03:23:35;;;;;;;48.50;24.38;;;;;;;18.75;100.00;101230.09;5060644;28;20036;-67
2021/06/18 03:26:03;;;;;;;44.50;24.77;;;;;;;18.59;100.00;101216.19;5062936;28;20040;-64
2021/06/18 03:28:30;;;;;;;50.97;27.38;;;;;;;18.98;100.00;101217.03;5061547;28;20029;-66
2021/06/18 03:30:55;;;;;;;44.00;26.15;;;;;;;19.08;100.00;101212.34;5062116;28;20036;-63
2021/06/18 03:33:22;;;;;;;43.70;24.17;;;;;;;19.11;100.00;101201.56;5062674;28;20398;-63
2021/06/18 03:35:48;;;;;;;30.08;15.55;;;;;;;18.78;100.00;101188.03;5061013;28;20029;-67
2021/06/18 03:38:15;;;;;;;35.78;17.98;;;;;;;18.90;100.00;101210.13;5065889;28;20033;-65
2021/06/18 03:40:42;;;;;;;37.70;20.35;;;;;;;19.15;100.00;101269.34;5063999;28;20021;-65
2021/06/18 03:43:08;;;;;;;31.17;15.95;;;;;;;18.80;100.00;101362.97;5059925;28;20506;-63
2021/06/18 03:45:37;;;;;;;23.33;8.43;;;;;;;18.55;100.00;101423.28;5066485;28;20170;-63
2021/06/18 03:48:03;;;;;;;51.83;16.90;;;;;;;18.32;100.00;101469.22;5064025;28;20063;-68
2021/06/18 03:50:29;;;;;;;48.45;23.55;;;;;;;18.24;100.00;101376.56;5066113;28;20029;-67
2021/06/18 03:52:55;;;;;;;107.28;29.60;;;;;;;18.40;100.00;101318.28;5065162;28;20379;-69
2021/06/18 03:55:21;;;;;;;41.22;21.05;;;;;;;18.43;100.00;101302.16;5064771;28;20025;-67
2021/06/18 03:57:50;;;;;;;40.00;21.20;;;;;;;18.52;100.00;101258.25;5066553;28;20048;-67
2021/06/18 04:00:17;;;;;;;40.83;21.15;;;;;;;18.58;100.00;101255.47;5063932;28;20099;-67
2021/06/18 04:02:43;;;;;;;40.17;20.40;;;;;;;18.60;100.00;101242.91;5066610;28;20028;-66
2021/06/18 04:05:14;;;;;;;44.97;23.08;;;;;;;18.63;100.00;101252.69;5063353;28;20033;-66
2021/06/18 04:07:44;;;;;;;62.63;26.02;;;;;;;18.82;100.00;101262.03;5059323;28;20021;-67
2021/06/18 04:10:10;;;;;;;38.30;21.45;;;;;;;18.73;100.00;101261.38;5059099;28;20053;-66
2021/06/18 04:12:38;;;;;;;34.95;19.60;;;;;;;18.70;100.00;101259.66;5066756;28;20108;-66
2021/06/18 04:15:04;;;;;;;33.25;17.15;;;;;;;18.56;100.00;101259.09;5063528;28;20484;-67
2021/06/18 04:17:30;;;;;;;29.90;14.55;;;;;;;18.51;100.00;101269.00;5065501;28;20071;-66
2021/06/18 04:19:56;;;;;;;30.63;13.93;;;;;;;18.49;100.00;101261.00;5064836;28;20025;-67
2021/06/18 04:22:30;;;;;;;30.80;14.88;;;;;;;18.66;100.00;101257.97;5064064;28;20021;-67
2021/06/18 04:24:55;;;;;;;29.48;15.23;;;;;;;18.74;100.00;101261.34;5064601;28;20094;-66
2021/06/18 04:27:21;;;;;;;29.70;13.90;;;;;;;18.76;100.00;101248.78;5064060;28;20473;-67
2021/06/18 04:29:46;;;;;;;27.85;11.80;;;;;;;18.57;100.00;101239.44;5065571;28;20496;-66
2021/06/18 04:32:11;;;;;;;28.08;13.07;;;;;;;18.67;100.00;101243.66;5062991;28;20535;-67
2021/06/18 04:34:37;;;;;;;28.77;13.00;;;;;;;18.64;100.00;101238.38;5066244;28;20048;-67
2021/06/18 04:37:02;;;;;;;28.80;13.68;;;;;;;18.81;100.00;101246.00;5063361;28;20503;-66
2021/06/18 04:39:28;;;;;;;33.60;16.88;;;;;;;18.83;100.00;101249.53;5064648;28;20060;-68
2021/06/18 04:41:53;;;;;;;28.48;13.65;;;;;;;18.79;100.00;101254.06;5064709;28;20028;-66
2021/06/18 04:44:18;;;;;;;27.88;13.57;;;;;;;18.95;100.00;101261.78;5063248;28;20060;-67
2021/06/18 04:46:44;;;;;;;28.95;12.20;;;;;;;18.85;100.00;101268.25;5065534;28;20062;-66
2021/06/18 04:49:09;;;;;;;28.98;14.18;;;;;;;18.95;100.00;101269.81;5059449;28;20084;-65
2021/06/18 04:51:34;;;;;;;28.67;13.35;;;;;;;18.90;100.00;101269.03;5061773;28;20167;-64
2021/06/18 04:54:00;;;;;;;29.55;14.48;;;;;;;19.02;100.00;101255.38;5058788;28;20060;-64
2021/06/18 04:56:25;;;;;;;28.40;13.80;;;;;;;18.94;100.00;101246.63;5059062;28;20020;-65
2021/06/18 04:58:51;;;;;;;30.80;14.05;;;;;;;18.99;100.00;101244.72;5057127;28;20166;-64
2021/06/18 05:01:16;;;;;;;25.80;12.93;;;;;;;18.94;100.00;101249.31;5059093;28;20048;-64
2021/06/18 05:03:42;;;;;;;26.92;12.82;;;;;;;19.04;100.00;101237.44;5059258;28;20021;-63
2021/06/18 05:06:07;;;;;;;26.60;11.98;;;;;;;19.00;100.00;101241.13;5057974;28;20021;-63
2021/06/18 05:08:33;;;;;;;27.13;13.43;;;;;;;19.16;100.00;101234.47;5057949;28;20103;-64
2021/06/18 05:10:58;;;;;;;28.38;13.88;;;;;;;19.14;100.00;101238.09;5058577;28;20053;-63
2021/06/18 05:13:23;;;;;;;26.90;14.00;;;;;;;19.15;100.00;101239.88;5057014;28;20029;-64
2021/06/18 05:15:49;;;;;;;26.65;13.10;;;;;;;19.16;100.00;101237.16;5056771;28;20120;-64
2021/06/18 05:18:14;;;;;;;26.80;13.32;;;;;;;19.14;100.00;101222.91;5059589;28;20100;-64
2021/06/18 05:20:41;;;;;;;28.73;15.00;;;;;;;19.14;100.00;101233.63;5059997;28;20025;-63
2021/06/18 05:23:06;;;;;;;30.65;16.98;;;;;;;19.13;100.00;101236.34;5059322;28;20074;-63
2021/06/18 05:25:32;;;;;;;32.53;17.55;;;;;;;19.22;100.00;101244.16;5058785;28;20099;-64
2021/06/18 05:27:57;;;;;;;32.50;18.08;;;;;;;19.19;100.00;101233.50;5056746;28;20025;-64
2021/06/18 05:30:23;;;;;;;34.28;19.40;;;;;;;19.18;100.00;101239.78;5058564;28;20044;-63
2021/06/18 05:32:48;;;;;;;36.92;20.98;;;;;;;19.23;100.00;101224.47;5056768;28;20025;-63
2021/06/18 05:35:14;;;;;;;39.67;23.17;;;;;;;19.23;100.00;101224.47;5057331;28;20032;-63
2021/06/18 05:37:40;;;;;;;44.33;26.27;;;;;;;19.29;100.00;101223.44;5060524;28;20016;-63
2021/06/18 05:40:06;;;;;;;47.92;28.75;;;;;;;19.36;100.00;101210.75;5058345;28;20017;-63
2021/06/18 05:42:32;;;;;;;55.00;31.50;;;;;;;19.41;100.00;101212.41;5059671;28;20029;-63
2021/06/18 05:44:57;;;;;;;54.22;33.05;;;;;;;19.39;100.00;101221.41;5054815;28;20101;-65
2021/06/18 05:47:22;;;;;;;59.10;35.83;;;;;;;19.37;100.00;101229.47;5058317;28;20099;-64
2021/06/18 05:49:48;;;;;;;69.47;42.58;;;;;;;19.43;100.00;101250.75;5058087;28;20052;-67
2021/06/18 05:52:13;;;;;;;76.22;44.75;;;;;;;19.44;100.00;101262.34;5057833;28;20082;-67
2021/06/18 05:54:38;;;;;;;81.15;48.53;;;;;;;19.33;100.00;101259.97;5058307;28;20487;-66
2021/06/18 05:57:04;;;;;;;93.13;51.15;;;;;;;19.31;100.00;101264.50;5057286;28;20033;-67
2021/06/18 05:59:30;;;;;;;94.07;53.28;;;;;;;19.30;100.00;101260.91;5057193;28;20025;-66
2021/06/18 06:01:55;;;;;;;98.80;55.90;;;;;;;19.42;100.00;101259.72;5049457;28;20029;-66
2021/06/18 06:04:20;;;;;;;105.82;59.47;;;;;;;19.46;100.00;101249.81;5057360;28;20075;-67
2021/06/18 06:06:46;;;;;;;107.35;62.67;;;;;;;19.47;100.00;101248.84;5053514;28;20116;-67
2021/06/18 06:09:11;;;;;;;118.53;67.18;;;;;;;19.50;100.00;101240.75;5058730;28;20055;-66
2021/06/18 06:11:36;;;;;;;112.45;64.97;;;;;;;19.50;100.00;101240.75;5055839;28;20025;-67
2021/06/18 06:14:04;;;;;;;123.07;67.13;;;;;;;19.56;100.00;101248.63;5060279;28;20029;-66
2021/06/18 06:16:31;;;;;;;110.90;63.20;;;;;;;19.58;100.00;101245.91;5058477;28;20040;-67
2021/06/18 06:18:56;;;;;;;114.93;62.53;;;;;;;19.61;100.00;101253.88;5056951;28;20024;-67
2021/06/18 06:21:23;;;;;;;109.55;61.92;;;;;;;19.66;100.00;101246.59;5057270;28;20540;-67
2021/06/18 06:23:49;;;;;;;110.53;60.90;;;;;;;19.72;100.00;101243.75;5056418;28;20029;-66
2021/06/18 06:26:15;;;;;;;106.55;59.83;;;;;;;19.65;100.00;101253.75;5057476;28;20459;-67
2021/06/18 06:28:41;;;;;;;112.60;64.75;;;;;;;19.81;100.00;101256.91;5058614;28;20029;-69
2021/06/18 06:31:06;;;;;;;116.85;64.72;;;;;;;19.83;100.00;101251.50;5061480;28;20506;-68
2021/06/18 06:33:32;;;;;;;105.93;61.33;;;;;;;19.85;100.00;101253.22;5062509;28;20025;-67
2021/06/18 06:35:57;;;;;;;108.38;62.58;;;;;;;19.92;100.00;101247.69;5062696;28;20031;-67
2021/06/18 06:38:22;;;;;;;98.55;59.10;;;;;;;19.90;100.00;101255.78;5061267;28;20022;-67
2021/06/18 06:40:50;;;;;;;92.15;57.65;;;;;;;19.88;100.00;101256.75;5064054;28;20028;-67
2021/06/18 06:43:15;;;;;;;96.03;58.80;;;;;;;19.94;100.00;101251.22;5060546;28;20031;-64
2021/06/18 06:45:41;;;;;;;100.68;59.92;;;;;;;19.97;100.00;101256.50;5064221;28;20115;-64
2021/06/18 06:48:07;;;;;;;93.95;57.97;;;;;;;19.89;100.00;101255.81;5061457;28;20391;-64
2021/06/18 06:50:32;;;;;;;90.10;57.40;;;;;;;19.81;100.00;101258.72;5062299;28;20452;-66
2021/06/18 06:52:58;;;;;;;92.47;56.88;;;;;;;19.75;100.00;101262.44;5062685;28;20426;-64
2021/06/18 06:55:23;;;;;;;88.00;57.55;;;;;;;19.71;100.00;101265.25;5059865;28;20365;-63
2021/06/18 06:57:50;;;;;;;81.70;55.20;;;;;;;19.54;100.00;101263.88;5064313;28;20092;-64
2021/06/18 07:00:16;;;;;;;90.18;56.97;;;;;;;19.52;100.00;101255.88;5059097;28;20383;-64
2021/06/18 07:02:43;;;;;;;97.20;59.40;;;;;;;19.62;100.00;101236.88;5052049;28;20039;-64
2021/06/18 07:05:08;;;;;;;99.35;61.50;;;;;;;19.62;100.00;101250.28;5064068;28;20040;-64
2021/06/18 07:07:35;;;;;;;87.13;56.60;;;;;;;19.55;100.00;101256.72;5059665;28;20468;-64
2021/06/18 07:10:01;;;;;;;85.30;55.90;;;;;;;19.52;100.00;101255.88;5061132;28;20445;-65
2021/06/18 07:12:26;;;;;;;110.80;63.78;;;;;;;19.81;100.00;101248.88;5053023;28;20107;-67
2021/06/18 07:14:52;;;;;;;111.85;65.22;;;;;;;19.90;100.00;101249.56;5055190;28;20020;-65
2021/06/18 07:17:17;;;;;;;105.90;63.53;;;;;;;20.00;100.00;101243.00;5054283;28;20392;-63
2021/06/18 07:19:43;;;;;;;81.18;54.30;;;;;;;19.90;100.00;101238.81;5054461;28;20128;-62
2021/06/18 07:22:09;;;;;;;82.32;54.05;;;;;;;19.95;100.00;101234.19;5054279;28;20361;-66
2021/06/18 07:24:35;;;;;;;78.57;53.92;;;;;;;20.01;100.00;101225.97;5054855;28;20048;-67
2021/06/18 07:27:00;;;;;;;77.40;53.83;;;;;;;20.09;100.00;101218.56;5055447;28;20460;-67
2021/06/18 07:29:26;;;;;;;80.80;53.80;;;;;;;20.11;100.00;101214.06;5054205;28;20073;-67
2021/06/18 07:31:52;;;;;;;72.28;51.67;;;;;;;20.01;100.00;101204.53;5064747;28;20020;-66
2021/06/18 07:34:17;;;;;;;70.68;50.72;;;;;;;20.03;100.00;101192.78;5065748;28;20386;-67
2021/06/18 07:36:43;;;;;;;77.68;54.15;;;;;;;20.09;100.00;101191.72;5059422;28;20100;-65
2021/06/18 07:39:08;;;;;;;77.68;54.38;;;;;;;20.20;100.00;101194.97;5066407;28;20459;-67
2021/06/18 07:41:35;;;;;;;71.47;52.45;;;;;;;20.26;100.00;101198.41;5058086;28;20079;-66
2021/06/18 07:44:01;;;;;;;76.40;54.13;;;;;;;20.44;100.00;101191.59;5061945;28;20104;-68
2021/06/18 07:46:27;;;;;;;71.10;52.80;;;;;;;20.55;100.00;101201.06;5060529;28;20112;-66
2021/06/18 07:48:53;;;;;;;62.97;50.08;;;;;;;20.59;100.00;101201.84;5061535;28;20033;-65
2021/06/18 07:51:19;;;;;;;59.80;46.78;;;;;;;20.47;100.00;101207.59;5059374;28;20020;-65
2021/06/18 07:53:45;;;;;;;64.07;48.95;;;;;;;20.59;100.00;101207.22;5059640;28;20475;-66
2021/06/18 07:56:11;;;;;;;64.82;49.42;;;;;;;20.64;100.00;101204.41;5059012;28;20060;-66
2021/06/18 07:58:38;;;;;;;68.32;51.20;;;;;;;20.82;100.00;101187.69;5060424;28;20021;-66
2021/06/18 08:01:03;;;;;;;64.97;51.22;;;;;;;20.97;100.00;101183.63;5058153;28;20036;-66
2021/06/18 08:03:28;;;;;;;66.63;50.78;;;;;;;21.14;100.00;101183.03;5058733;28;20369;-67
2021/06/18 08:05:54;;;;;;;62.47;50.17;;;;;;;21.29;100.00;101176.28;5059283;28;20036;-67
2021/06/18 08:08:19;;;;;;;61.92;49.97;;;;;;;21.44;100.00;101176.66;5056389;28;20021;-65
2021/06/18 08:10:44;;;;;;;65.20;53.60;;;;;;;21.57;100.00;101164.56;5060235;28;20095;-66
2021/06/18 08:13:10;;;;;;;59.55;50.25;;;;;;;21.56;100.00;101166.34;5062597;28;20036;-66
2021/06/18 08:15:35;;;;;;;56.72;47.97;;;;;;;21.52;100.00;101180.88;5060154;28;20021;-66
2021/06/18 08:18:00;;;;;;;56.80;48.13;;;;;;;21.55;100.00;101172.69;5056145;28;20083;-67
2021/06/18 08:20:26;;;;;;;56.05;46.75;;;;;;;21.80;100.00;101168.19;5057596;28;20027;-67
2021/06/18 08:22:53;;;;;;;57.05;48.25;;;;;;;22.01;100.00;101174.59;5057760;28;20047;-66
2021/06/18 08:25:19;;;;;;;52.08;44.47;;;;;;;22.09;100.00;101177.84;5060386;28;20013;-66
2021/06/18 08:27:46;;;;;;;50.83;43.97;;;;;;;22.21;100.00;101172.00;5057029;28;20025;-66
2021/06/18 08:30:11;;;;;;;53.20;44.22;;;;;;;22.44;100.00;101178.31;5058365;28;20082;-67
2021/06/18 08:32:37;;;;;;;51.53;43.35;;;;;;;22.70;100.00;101179.06;5059271;28;20419;-67
2021/06/18 08:35:03;;;;;;;47.90;42.00;;;;;;;22.87;100.00;101175.69;5062223;28;20086;-66
2021/06/18 08:37:29;;;;;;;48.20;39.75;;;;;;;22.98;100.00;101181.50;5057938;28;20476;-67
2021/06/18 08:39:54;;;;;;;46.17;39.47;;;;;;;23.12;100.00;101183.63;5062538;28;20124;-66
2021/06/18 08:42:19;;;;;;;46.17;40.15;;;;;;;23.25;100.00;101179.47;5061151;28;20388;-66
2021/06/18 08:44:46;;;;;;;42.95;36.03;;;;;;;23.39;100.00;101181.56;5058682;28;20126;-66
2021/06/18 08:47:14;;;;;;;43.03;36.83;;;;;;;23.55;100.00;101179.06;5054422;28;20044;-65
2021/06/18 08:49:40;;;;;;;44.65;37.83;;;;;;;23.80;98.51;101175.25;5058311;28;20033;-66
2021/06/18 08:52:06;;;;;;;42.25;35.97;;;;;;;24.04;96.93;101175.94;5062109;28;20021;-66
2021/06/18 08:54:41;;;;;;;43.35;35.03;;;;;;;24.19;94.46;101175.25;5067055;28;20374;-64
2021/06/18 08:57:09;;;;;;;68.32;47.10;;;;;;;24.26;93.16;101173.13;5059998;28;20029;-64
2021/06/18 08:59:34;;;;;;;43.85;35.42;;;;;;;24.39;91.45;101176.09;5063206;28;20111;-65
2021/06/18 09:01:59;;;;;;;42.25;34.83;;;;;;;24.45;90.64;101177.63;5058877;28;20448;-64
2021/06/18 09:04:24;;;;;;;40.17;31.05;;;;;;;24.45;84.65;101169.53;5059519;28;20055;-64
2021/06/18 09:06:57;;;;;;;39.30;32.10;;;;;;;24.60;87.50;101168.81;5065544;28;20024;-65
2021/06/18 09:09:27;;;;;;;39.90;32.03;;;;;;;24.76;86.01;101173.47;5061267;28;20398;-66
2021/06/18 09:11:58;;;;;;;38.70;29.77;;;;;;;24.92;81.14;101166.31;5057756;28;20102;-66
2021/06/18 09:14:36;;;;;;;37.97;30.60;;;;;;;25.03;83.35;101166.66;5060430;28;20021;-65
2021/06/18 09:17:27;;;;;;;36.08;29.08;;;;;;;25.19;77.96;101160.44;5061284;28;20111;-65
2021/06/18 09:19:56;;;;;;;35.92;28.60;;;;;;;25.10;78.54;101167.19;5080887;28;20123;-65
2021/06/18 09:22:36;;;;;;;36.97;28.52;;;;;;;25.07;82.54;101172.78;5080439;28;20043;-65
2021/06/18 09:25:15;;;;;;;39.20;28.60;;;;;;;25.35;79.50;101168.66;5075678;28;20040;-65
2021/06/18 09:27:49;;;;;;;37.78;29.63;;;;;;;25.61;78.77;101161.00;5077786;28;20024;-66
2021/06/18 09:30:31;;;;;;;36.35;27.55;;;;;;;25.69;79.01;101158.75;5071066;28;20043;-64
2021/06/18 09:33:00;;;;;;;39.50;29.67;;;;;;;25.92;79.07;101162.88;5073331;28;20582;-65
2021/06/18 09:35:26;;;;;;;36.03;27.27;;;;;;;26.06;72.48;101163.03;5070478;28;20578;-67
2021/06/18 09:37:56;;;;;;;33.95;26.27;;;;;;;26.20;72.12;101164.13;5073420;28;20032;-68
2021/06/18 09:40:25;;;;;;;33.83;25.60;;;;;;;26.33;69.88;101150.72;5071159;28;20028;-67
2021/06/18 09:42:56;;;;;;;34.30;24.33;;;;;;;26.46;71.91;101146.38;5071030;28;20025;-67
2021/06/18 09:45:30;;;;;;;33.50;23.90;;;;;;;26.77;73.15;101144.59;5056355;28;20086;-66
2021/06/18 09:48:20;;;;;;;32.97;24.55;;;;;;;26.94;72.74;101141.75;5072961;28;20028;-63
2021/06/18 09:50:58;;;;;;;32.95;23.42;;;;;;;26.97;66.67;101143.41;5070637;28;20056;-64
2021/06/18 09:53:26;;;;;;;32.33;23.58;;;;;;;27.01;63.98;101144.09;5071076;28;20167;-63
2021/06/18 09:56:13;;;;;;;31.70;22.40;;;;;;;27.00;66.16;101148.66;5073271;28;20056;-64
2021/06/18 09:58:40;;;;;;;32.95;23.50;;;;;;;27.36;63.18;101138.38;5061038;28;20068;-67
2021/06/18 10:01:15;;;;;;;31.33;22.88;;;;;;;27.53;61.84;101127.34;5059615;28;20036;-66
2021/06/18 10:04:02;;;;;;;32.97;22.45;;;;;;;28.06;63.47;101133.09;5062342;28;20388;-68
2021/06/18 10:06:36;;;;;;;29.35;20.92;;;;;;;28.57;60.54;101137.91;5059669;28;20028;-67
2021/06/18 10:09:04;;;;;;;30.38;20.40;;;;;;;29.75;55.10;101130.69;5062054;28;20543;-67
2021/06/18 10:11:30;;;;;;;31.80;21.23;;;;;;;31.26;50.43;101119.41;5059131;28;20041;-68
2021/06/18 10:13:57;;;;;;;30.10;20.17;;;;;;;32.65;46.96;101134.59;5062773;28;20024;-67
2021/06/18 10:16:23;;;;;;;30.63;21.10;;;;;;;33.27;43.45;101122.03;5060160;28;20025;-67
2021/06/18 10:18:50;;;;;;;35.25;20.63;;;;;;;33.48;43.34;101123.88;5061834;28;20017;-67
2021/06/18 10:21:17;;;;;;;31.38;20.70;;;;;;;34.51;40.03;101116.47;5060478;28;20120;-67
2021/06/18 10:23:44;;;;;;;31.52;20.38;;;;;;;34.85;41.03;101129.78;5060196;28;20476;-67
2021/06/18 10:26:13;;;;;;;30.80;19.52;;;;;;;35.07;40.31;101121.25;5059423;28;20024;-67
2021/06/18 10:28:39;;;;;;;32.08;20.13;;;;;;;34.82;38.52;101113.59;5057654;28;20100;-68
2021/06/18 10:31:07;;;;;;;30.90;20.33;;;;;;;35.17;38.16;101099.25;5061035;28;20120;-68
2021/06/18 10:33:35;;;;;;;29.58;18.48;;;;;;;35.27;37.73;101099.22;5063349;28;20376;-68
2021/06/18 10:36:10;;;;;;;29.17;16.52;;;;;;;35.48;37.78;101093.56;5060628;28;20465;-68
2021/06/18 10:38:41;;;;;;;27.85;16.85;;;;;;;36.10;38.31;101082.84;5062894;28;20029;-68
2021/06/18 10:41:12;;;;;;;27.58;17.92;;;;;;;36.79;34.99;101088.72;5061940;28;20104;-67
2021/06/18 10:43:49;;;;;;;28.63;17.23;;;;;;;36.70;34.48;101078.66;5062143;28;20031;-67
2021/06/18 10:46:16;;;;;;;27.15;17.23;;;;;;;36.90;33.97;101081.22;5062691;28;20464;-69
2021/06/18 10:48:51;;;;;;;28.08;16.70;;;;;;;37.28;35.64;101087.38;5065796;28;20050;-69
2021/06/18 10:51:34;;;;;;;26.55;16.50;;;;;;;37.59;34.31;101093.25;5067127;28;20475;-68
2021/06/18 10:54:13;;;;;;;28.00;15.85;;;;;;;37.93;32.63;101088.75;5061767;28;20423;-69
2021/06/18 10:56:44;;;;;;;25.92;14.85;;;;;;;38.16;31.74;101081.56;5066633;28;20074;-68
2021/06/18 10:59:11;;;;;;;;;;;;;;;38.84;32.63;101081.50;5066444;28;20063;-68
2021/06/18 11:01:36;;;;;;;29.25;16.50;;;;;;;38.80;30.56;101089.28;5064045;28;20079;-67
2021/06/18 11:04:03;;;;;;;25.42;14.23;;;;;;;39.39;30.07;101090.94;5063935;28;20030;-66
2021/06/18 11:06:48;;;;;;;26.75;12.85;;;;;;;40.17;30.59;101083.75;5060663;28;20031;-66
2021/06/18 11:09:34;;;;;;;31.27;16.17;;;;;;;40.37;28.63;101077.72;5054848;28;20024;-65